Terminal Aerodrome Forecast
Issued by NWS Charleston, WV

Home | Current Version | Previous Version | Text Only | Print | Product List | Glossary On
Versions: 1 2 3 4 5 6 7 8 9 10 11 12 13 14 15 16 17 18 19 20 21 22 23 24
000
FTUS41 KRLX 301100
TAFPKB
TAF
KPKB 301122Z 3012/3112 18004KT P6SM SCT060
     FM301400 25005KT P6SM SCT090
     FM301900 27006KT P6SM BKN050
     FM310000 00000KT P6SM BKN060
     FM310600 00000KT 4SM BR SCT060=

USA.gov is the U.S. government's official web portal to all federal, state and local government web resources and services.